createdAt,value
2018-02-27T00:00:59.537Z,49.20
2018-02-27T00:03:28.243Z,49.20
2018-02-27T00:05:57.031Z,48.60
2018-02-27T00:08:25.721Z,48.50
2018-02-27T00:10:55.224Z,48.20
2018-02-27T00:13:24.752Z,49.30
2018-02-27T00:15:54.196Z,49.50
2018-02-27T00:18:22.870Z,49.50
2018-02-27T00:20:51.530Z,49.10
2018-02-27T00:23:20.792Z,49.20
2018-02-27T00:25:49.473Z,49.20
2018-02-27T00:28:18.179Z,49.00
2018-02-27T00:30:47.222Z,49.10
2018-02-27T00:33:16.853Z,48.90
2018-02-27T00:35:45.568Z,49.60
2018-02-27T00:38:14.763Z,49.40
2018-02-27T00:40:43.706Z,49.40
2018-02-27T00:43:12.617Z,49.40
2018-02-27T00:45:41.510Z,50.10
2018-02-27T00:48:10.223Z,49.10
2018-02-27T00:50:39.260Z,49.20
2018-02-27T00:53:08.098Z,49.60
2018-02-27T00:55:36.758Z,49.70
2018-02-27T00:58:05.783Z,49.40
2018-02-27T01:00:34.473Z,49.60
2018-02-27T01:03:03.176Z,49.80
2018-02-27T01:05:31.849Z,49.70
2018-02-27T01:08:01.062Z,49.90
2018-02-27T01:10:29.801Z,49.50
2018-02-27T01:12:58.817Z,49.50
2018-02-27T01:15:27.817Z,50.10
2018-02-27T01:17:56.750Z,50.20
2018-02-27T01:20:26.465Z,49.90
2018-02-27T01:22:56.330Z,50.50
2018-02-27T01:25:25.293Z,50.40
2018-02-27T01:27:54.321Z,50.70
2018-02-27T01:30:23.052Z,50.60
2018-02-27T01:32:52.711Z,50.10
2018-02-27T01:35:21.413Z,50.70
2018-02-27T01:37:50.066Z,50.20
2018-02-27T01:40:18.782Z,50.50
2018-02-27T01:42:47.590Z,51.20
2018-02-27T01:45:16.461Z,51.80
2018-02-27T01:47:46.077Z,52.00
2018-02-27T01:50:14.804Z,52.30
2018-02-27T01:52:45.844Z,52.30
2018-02-27T01:55:14.769Z,52.40
2018-02-27T01:57:43.762Z,52.80
2018-02-27T02:00:12.762Z,53.80
2018-02-27T02:02:41.473Z,53.70
2018-02-27T02:05:10.198Z,53.50
2018-02-27T02:07:39.383Z,53.60
2018-02-27T02:10:09.207Z,54.30
2018-02-27T02:12:38.872Z,54.10
2018-02-27T02:15:07.860Z,54.10
2018-02-27T02:17:36.788Z,54.10
2018-02-27T02:20:05.459Z,54.50
2018-02-27T02:22:34.175Z,54.60
2018-02-27T02:25:04.273Z,54.50
2018-02-27T02:27:32.985Z,54.50
2018-02-27T02:30:03.055Z,55.80
2018-02-27T02:32:31.728Z,55.70
2018-02-27T02:35:00.790Z,56.70
2018-02-27T02:37:30.259Z,56.50
2018-02-27T02:39:59.547Z,56.50
2018-02-27T02:42:28.289Z,56.30
2018-02-27T02:44:57.299Z,56.40
2018-02-27T02:47:26.225Z,56.60
2018-02-27T02:49:55.172Z,58.00
2018-02-27T02:52:24.213Z,57.90
2018-02-27T02:54:53.125Z,57.90
2018-02-27T02:57:21.977Z,57.90
2018-02-27T02:59:50.636Z,57.80
2018-02-27T03:02:19.571Z,57.60
2018-02-27T03:04:48.302Z,58.10
2018-02-27T03:07:21.106Z,58.30
2018-02-27T03:09:50.149Z,58.30
2018-02-27T03:12:19.079Z,58.50
2018-02-27T03:14:48.921Z,58.90
2018-02-27T03:17:17.841Z,58.90
2018-02-27T03:19:46.859Z,59.50
2018-02-27T03:22:15.815Z,59.80
2018-02-27T03:24:44.700Z,59.60
2018-02-27T03:27:13.564Z,59.50
2018-02-27T03:29:44.814Z,60.00
2018-02-27T03:32:14.080Z,59.80
2018-02-27T03:34:42.790Z,60.20
2018-02-27T03:37:11.840Z,60.30
2018-02-27T03:39:40.543Z,60.60
2018-02-27T03:42:09.585Z,60.90
2018-02-27T03:44:39.306Z,61.40
2018-02-27T03:47:08.327Z,61.20
2018-02-27T03:49:37.361Z,61.10
2018-02-27T03:52:07.197Z,61.40
2018-02-27T03:54:36.248Z,61.40
2018-02-27T03:57:05.171Z,62.50
2018-02-27T03:59:33.977Z,62.00
2018-02-27T04:02:02.877Z,61.90
2018-02-27T04:04:31.715Z,61.90
2018-02-27T04:07:00.591Z,61.80
2018-02-27T04:09:29.461Z,62.00
2018-02-27T04:11:58.321Z,61.90
2018-02-27T04:14:27.201Z,61.90
2018-02-27T04:16:56.061Z,62.80
2018-02-27T04:19:24.933Z,62.50
2018-02-27T04:21:53.809Z,62.50
2018-02-27T04:24:22.669Z,62.30
2018-02-27T04:26:52.455Z,62.90
2018-02-27T04:29:21.197Z,62.80
2018-02-27T04:31:50.158Z,62.50
2018-02-27T04:34:19.181Z,62.00
2018-02-27T04:36:48.043Z,61.70
2018-02-27T04:39:17.906Z,61.40
2018-02-27T04:41:46.781Z,61.40
2018-02-27T04:44:15.671Z,61.40
2018-02-27T04:46:44.541Z,61.20
2018-02-27T04:49:13.426Z,61.20
2018-02-27T04:51:43.117Z,60.90
2018-02-27T04:54:12.065Z,60.80
2018-02-27T04:56:40.783Z,60.40
2018-02-27T04:59:09.913Z,60.70
2018-02-27T05:01:39.662Z,60.80
2018-02-27T05:04:08.410Z,60.80
2018-02-27T05:06:38.260Z,60.60
2018-02-27T05:09:07.218Z,60.60
2018-02-27T05:11:37.035Z,60.80
2018-02-27T05:14:06.925Z,61.40
2018-02-27T05:16:35.912Z,61.40
2018-02-27T05:19:04.679Z,61.10
2018-02-27T05:21:33.734Z,61.40
2018-02-27T05:24:03.464Z,62.80
2018-02-27T05:26:32.424Z,62.80
2018-02-27T05:29:02.745Z,63.60
2018-02-27T05:31:32.378Z,63.90
2018-02-27T05:34:01.249Z,63.90
2018-02-27T05:36:31.003Z,63.10
2018-02-27T05:38:59.998Z,63.30
2018-02-27T05:41:28.873Z,63.80
2018-02-27T05:43:57.846Z,63.50
2018-02-27T05:46:27.554Z,63.10
2018-02-27T05:48:56.544Z,63.10
2018-02-27T05:51:26.113Z,62.90
2018-02-27T05:53:55.078Z,63.30
2018-02-27T05:56:24.632Z,62.80
2018-02-27T05:58:53.741Z,62.70
2018-02-27T06:01:22.812Z,62.80
2018-02-27T06:03:52.405Z,63.10
2018-02-27T06:06:21.402Z,63.10
2018-02-27T06:08:50.509Z,63.00
2018-02-27T06:11:20.330Z,63.00
2018-02-27T06:13:49.267Z,63.10
2018-02-27T06:16:18.148Z,63.20
2018-02-27T06:18:47.036Z,63.30
2018-02-27T06:21:16.825Z,62.60
2018-02-27T06:23:45.869Z,62.60
2018-02-27T06:26:14.659Z,62.30
2018-02-27T06:28:43.554Z,62.20
2018-02-27T06:31:12.426Z,62.30
2018-02-27T06:33:41.329Z,61.70
2018-02-27T06:36:10.196Z,62.10
2018-02-27T06:38:40.622Z,60.60
2018-02-27T06:41:10.834Z,60.00
2018-02-27T06:43:40.753Z,60.20
2018-02-27T06:46:10.675Z,60.00
2018-02-27T06:48:39.687Z,60.10
2018-02-27T06:51:14.070Z,59.40
2018-02-27T06:53:43.301Z,59.00
2018-02-27T06:56:12.307Z,58.40
2018-02-27T06:58:41.159Z,58.20
2018-02-27T07:01:09.881Z,58.20
2018-02-27T07:03:38.871Z,58.50
2018-02-27T07:06:07.760Z,59.20
2018-02-27T07:08:36.469Z,59.30
2018-02-27T07:11:05.175Z,59.40
2018-02-27T07:13:33.856Z,59.50
2018-02-27T07:16:02.609Z,58.90
2018-02-27T07:18:32.110Z,59.20
2018-02-27T07:21:01.586Z,58.70
2018-02-27T07:23:30.338Z,58.70
2018-02-27T07:25:59.433Z,58.50
2018-02-27T07:28:28.124Z,58.00
2018-02-27T07:30:57.246Z,57.30
2018-02-27T07:33:26.277Z,57.10
2018-02-27T07:35:55.126Z,57.40
2018-02-27T07:38:24.037Z,55.70
2018-02-27T07:40:52.924Z,55.50
2018-02-27T07:43:21.785Z,55.40
2018-02-27T07:45:50.658Z,55.00
2018-02-27T07:48:19.523Z,54.70
2018-02-27T07:50:48.951Z,52.80
2018-02-27T07:53:17.644Z,52.70
2018-02-27T07:55:46.366Z,51.50
2018-02-27T07:58:15.739Z,50.80
2018-02-27T08:00:44.597Z,52.70
2018-02-27T08:03:14.308Z,51.90
2018-02-27T08:05:43.790Z,51.90
2018-02-27T08:08:13.236Z,51.90
2018-02-27T08:10:42.088Z,52.90
2018-02-27T08:13:11.010Z,53.60
2018-02-27T08:15:39.720Z,54.90
2018-02-27T08:18:08.449Z,53.90
2018-02-27T08:20:37.557Z,53.70
2018-02-27T08:23:06.229Z,53.40
2018-02-27T08:25:34.912Z,53.70
2018-02-27T08:28:03.855Z,52.50
2018-02-27T08:30:32.557Z,53.30
2018-02-27T08:33:01.895Z,52.40
2018-02-27T08:35:30.570Z,51.70
2018-02-27T08:37:59.629Z,52.70
2018-02-27T08:40:28.729Z,52.90
2018-02-27T08:42:57.641Z,52.80
2018-02-27T08:45:26.531Z,52.60
2018-02-27T08:47:55.391Z,50.50
2018-02-27T08:50:24.658Z,50.50
2018-02-27T08:52:53.349Z,50.40
2018-02-27T08:55:22.090Z,49.80
2018-02-27T08:57:50.766Z,51.90
2018-02-27T09:00:19.473Z,50.50
2018-02-27T09:02:48.164Z,50.80
2018-02-27T09:05:16.833Z,47.90
2018-02-27T09:07:45.574Z,46.70
2018-02-27T09:10:14.294Z,44.90
2018-02-27T09:12:42.966Z,43.80
2018-02-27T09:15:12.736Z,45.80
2018-02-27T09:17:41.442Z,45.70
2018-02-27T09:20:10.141Z,44.70
2018-02-27T09:22:39.001Z,44.60
2018-02-27T09:25:07.725Z,44.40
2018-02-27T09:27:37.209Z,40.90
2018-02-27T09:30:05.909Z,40.80
2018-02-27T09:32:34.578Z,40.50
2018-02-27T09:35:04.069Z,41.30
2018-02-27T09:37:32.788Z,41.20
2018-02-27T09:40:01.595Z,39.90
2018-02-27T09:42:31.038Z,37.70
2018-02-27T09:44:59.785Z,37.60
2018-02-27T09:47:28.476Z,36.40
2018-02-27T09:49:57.172Z,34.00
2018-02-27T09:52:25.891Z,33.00
2018-02-27T09:54:54.591Z,31.80
2018-02-27T09:57:23.315Z,30.80
2018-02-27T09:59:52.791Z,30.30
2018-02-27T10:02:21.486Z,30.30
2018-02-27T10:04:50.178Z,29.80
2018-02-27T10:07:19.077Z,31.80
2018-02-27T10:09:47.779Z,32.00
2018-02-27T10:12:16.489Z,30.00
2018-02-27T10:14:45.433Z,30.00
2018-02-27T10:17:14.164Z,30.60
2018-02-27T10:19:43.017Z,28.70
2018-02-27T10:22:11.746Z,28.20
2018-02-27T10:24:40.633Z,28.40
2018-02-27T10:27:09.330Z,28.10
2018-02-27T10:29:38.060Z,28.00
2018-02-27T10:32:06.739Z,27.70
2018-02-27T10:34:35.426Z,28.20
2018-02-27T10:37:04.137Z,27.20
2018-02-27T10:39:32.855Z,26.50
2018-02-27T10:42:01.600Z,26.50
2018-02-27T10:44:30.319Z,25.90
2018-02-27T10:46:59.768Z,24.80
2018-02-27T10:49:28.484Z,24.70
2018-02-27T10:51:57.164Z,23.70
2018-02-27T10:54:25.948Z,24.60
2018-02-27T10:56:54.689Z,23.60
2018-02-27T10:59:23.375Z,23.70
2018-02-27T11:01:56.758Z,23.20
2018-02-27T11:04:25.490Z,23.80
2018-02-27T11:06:55.100Z,24.80
2018-02-27T11:09:23.823Z,24.80
2018-02-27T11:11:53.322Z,22.40
2018-02-27T11:14:22.033Z,22.40
2018-02-27T11:16:50.740Z,22.30
2018-02-27T11:19:19.454Z,21.80
2018-02-27T11:21:48.157Z,22.00
2018-02-27T11:24:16.867Z,23.40
2018-02-27T11:26:46.348Z,24.30
2018-02-27T11:29:15.072Z,24.30
2018-02-27T11:31:44.791Z,22.20
2018-02-27T11:34:13.507Z,22.20
2018-02-27T11:36:42.215Z,23.40
2018-02-27T11:39:10.916Z,24.70
2018-02-27T11:41:39.632Z,25.20
2018-02-27T11:44:08.385Z,25.70
2018-02-27T11:46:37.076Z,26.20
2018-02-27T11:49:05.812Z,25.60
2018-02-27T11:51:34.515Z,26.60
2018-02-27T11:54:03.252Z,25.70
2018-02-27T11:56:31.974Z,25.70
2018-02-27T11:59:00.658Z,25.70
2018-02-27T12:01:29.615Z,25.50
2018-02-27T12:03:58.340Z,27.00
2018-02-27T12:06:27.027Z,27.60
2018-02-27T12:08:55.716Z,28.50
2018-02-27T12:11:24.416Z,28.80
2018-02-27T12:13:53.115Z,30.10
2018-02-27T12:16:21.665Z,30.10
2018-02-27T12:18:50.635Z,28.20
2018-02-27T12:21:19.369Z,28.40
2018-02-27T12:23:48.087Z,28.60
2018-02-27T12:26:16.782Z,28.00
2018-02-27T12:28:45.483Z,27.00
2018-02-27T12:31:14.366Z,27.10
2018-02-27T12:33:43.038Z,27.50
2018-02-27T12:36:11.767Z,29.00
2018-02-27T12:38:41.250Z,28.60
2018-02-27T12:41:10.738Z,29.90
2018-02-27T12:43:39.459Z,29.90
2018-02-27T12:46:08.928Z,30.90
2018-02-27T12:48:37.640Z,30.80
2018-02-27T12:51:07.108Z,32.10
2018-02-27T12:53:35.825Z,32.00
2018-02-27T12:56:04.538Z,34.60
2018-02-27T12:58:34.003Z,44.80
2018-02-27T13:01:02.725Z,44.90
2018-02-27T13:03:31.420Z,44.20
2018-02-27T13:06:00.893Z,47.30
2018-02-27T13:08:29.596Z,47.30
2018-02-27T13:10:59.085Z,53.10
2018-02-27T13:13:27.784Z,53.10
2018-02-27T13:15:56.489Z,56.50
2018-02-27T13:18:25.197Z,58.60
2018-02-27T13:20:53.906Z,59.30
2018-02-27T13:23:22.749Z,60.30
2018-02-27T13:25:52.609Z,61.50
2018-02-27T13:28:21.323Z,61.40
2018-02-27T13:30:50.017Z,61.50
2018-02-27T13:33:18.729Z,60.70
2018-02-27T13:35:48.198Z,61.50
2018-02-27T13:38:16.939Z,61.50
2018-02-27T13:40:45.623Z,61.80
2018-02-27T13:43:14.329Z,62.60
2018-02-27T13:45:43.062Z,62.20
2018-02-27T13:48:11.764Z,62.40
2018-02-27T13:50:41.227Z,60.90
2018-02-27T13:53:09.930Z,60.80
2018-02-27T13:55:38.618Z,60.40
2018-02-27T13:58:07.343Z,60.00
2018-02-27T14:00:36.043Z,59.40
2018-02-27T14:03:04.729Z,58.20
2018-02-27T14:05:33.589Z,58.30
2018-02-27T14:08:02.285Z,56.70
2018-02-27T14:10:31.775Z,53.70
2018-02-27T14:13:00.467Z,53.60
2018-02-27T14:15:29.172Z,53.80
2018-02-27T14:17:57.872Z,54.50
2018-02-27T14:20:26.580Z,57.30
2018-02-27T14:22:55.284Z,58.80
2018-02-27T14:25:24.002Z,58.50
2018-02-27T14:27:52.699Z,61.20
2018-02-27T14:30:22.140Z,61.90
2018-02-27T14:32:50.847Z,62.00
2018-02-27T14:35:19.545Z,62.80
2018-02-27T14:37:48.234Z,60.30
2018-02-27T14:40:16.945Z,59.20
2018-02-27T14:42:45.631Z,59.20
2018-02-27T14:45:15.089Z,58.60
2018-02-27T14:47:43.750Z,58.60
2018-02-27T14:50:12.437Z,59.20
2018-02-27T14:52:41.134Z,59.30
2018-02-27T14:55:10.608Z,60.00
2018-02-27T14:57:40.147Z,60.00
2018-02-27T15:00:08.825Z,60.00
2018-02-27T15:02:37.496Z,60.30
2018-02-27T15:05:06.969Z,60.30
2018-02-27T15:07:35.658Z,60.40
2018-02-27T15:10:04.345Z,59.70
2018-02-27T15:12:33.055Z,61.90
2018-02-27T15:15:02.509Z,64.10
2018-02-27T15:17:31.181Z,64.10
2018-02-27T15:19:59.918Z,65.20
2018-02-27T15:22:28.777Z,66.30
2018-02-27T15:24:57.474Z,67.60
2018-02-27T15:27:26.166Z,68.40
2018-02-27T15:29:54.966Z,68.90
2018-02-27T15:32:23.648Z,69.00
2018-02-27T15:34:53.150Z,69.40
2018-02-27T15:37:21.861Z,69.90
2018-02-27T15:39:51.320Z,70.00
2018-02-27T15:42:21.573Z,69.90
2018-02-27T15:44:51.068Z,72.40
2018-02-27T15:47:19.753Z,72.30
2018-02-27T15:49:48.495Z,72.30
2018-02-27T15:52:18.525Z,72.10
2018-02-27T15:54:48.523Z,71.90
2018-02-27T15:57:17.248Z,72.40
2018-02-27T15:59:45.992Z,72.20
2018-02-27T16:02:15.480Z,74.00
2018-02-27T16:04:44.188Z,74.00
2018-02-27T16:07:13.953Z,74.70
2018-02-27T16:09:43.461Z,74.10
2018-02-27T16:12:12.374Z,74.20
2018-02-27T16:14:41.116Z,73.60
2018-02-27T16:17:09.793Z,73.80
2018-02-27T16:19:38.577Z,73.80
2018-02-27T16:22:07.326Z,74.30
2018-02-27T16:24:35.698Z,75.80
2018-02-27T16:27:04.437Z,76.60
2018-02-27T16:29:33.402Z,76.50
2018-02-27T16:32:02.890Z,75.90
2018-02-27T16:34:31.585Z,76.00
2018-02-27T16:37:00.307Z,75.90
2018-02-27T16:39:29.001Z,76.40
2018-02-27T16:41:57.715Z,76.20
2018-02-27T16:44:27.153Z,76.70
2018-02-27T16:46:55.934Z,76.60
2018-02-27T16:49:24.652Z,77.30
2018-02-27T16:51:53.330Z,76.50
2018-02-27T16:54:22.052Z,76.30
2018-02-27T16:56:50.776Z,77.00
2018-02-27T16:59:19.523Z,77.60
2018-02-27T17:01:48.289Z,77.80
2018-02-27T17:04:17.768Z,77.80
2018-02-27T17:06:46.500Z,77.80
2018-02-27T17:09:15.246Z,77.30
2018-02-27T17:11:43.980Z,77.10
2018-02-27T17:14:12.803Z,77.60
2018-02-27T17:16:41.559Z,77.70
2018-02-27T17:19:10.267Z,78.00
2018-02-27T17:21:38.995Z,77.60
2018-02-27T17:24:08.499Z,77.80
2018-02-27T17:26:37.245Z,77.70
2018-02-27T17:29:05.986Z,78.20
2018-02-27T17:31:35.484Z,77.90
2018-02-27T17:34:04.228Z,78.00
2018-02-27T17:36:32.953Z,78.10
2018-02-27T17:39:02.519Z,78.60
2018-02-27T17:41:32.104Z,78.20
2018-02-27T17:44:01.056Z,78.20
2018-02-27T17:46:29.611Z,78.80
2018-02-27T17:48:58.328Z,78.30
2018-02-27T17:51:27.078Z,78.00
2018-02-27T17:53:55.961Z,76.90
2018-02-27T17:56:32.820Z,77.30
2018-02-27T17:59:01.461Z,76.60
2018-02-27T18:01:34.051Z,76.70
2018-02-27T18:04:03.678Z,77.90
2018-02-27T18:06:37.268Z,77.30
2018-02-27T18:09:05.885Z,77.30
2018-02-27T18:11:34.822Z,73.70
2018-02-27T18:14:04.344Z,75.30
2018-02-27T18:16:33.188Z,74.80
2018-02-27T18:19:01.912Z,73.50
2018-02-27T18:21:35.734Z,72.50
2018-02-27T18:24:06.482Z,71.50
2018-02-27T18:26:36.207Z,71.90
2018-02-27T18:29:05.006Z,71.90
2018-02-27T18:31:34.027Z,72.70
2018-02-27T18:34:03.013Z,70.70
2018-02-27T18:39:05.995Z,68.30
2018-02-27T18:41:36.724Z,67.10
2018-02-27T18:44:06.615Z,63.40
2018-02-27T18:46:38.840Z,63.60
2018-02-27T18:49:08.083Z,60.80
2018-02-27T18:51:38.231Z,59.00
2018-02-27T18:54:09.895Z,58.90
2018-02-27T18:59:19.091Z,62.50
2018-02-27T19:01:48.547Z,60.70
2018-02-27T19:04:17.340Z,61.50
2018-02-27T19:06:46.853Z,59.90
2018-02-27T19:09:17.231Z,58.00
2018-02-27T19:11:49.452Z,57.70
2018-02-27T19:14:31.271Z,58.60
2018-02-27T19:17:00.263Z,57.40
2018-02-27T19:19:29.249Z,57.80
2018-02-27T19:21:59.038Z,58.60
2018-02-27T19:24:30.626Z,58.60
2018-02-27T19:27:00.057Z,57.60
2018-02-27T19:29:29.440Z,57.60
2018-02-27T19:31:58.140Z,56.90
2018-02-27T19:34:33.881Z,56.00
2018-02-27T19:37:02.941Z,55.30
2018-02-27T19:39:32.784Z,56.20
2018-02-27T19:42:01.569Z,54.60
2018-02-27T19:44:30.397Z,53.70
2018-02-27T19:47:11.608Z,54.50
2018-02-27T19:49:44.412Z,55.30
2018-02-27T19:52:16.292Z,55.40
2018-02-27T19:54:56.643Z,54.80
2018-02-27T19:57:34.015Z,54.80
2018-02-27T20:00:07.497Z,54.70
2018-02-27T20:02:37.241Z,54.10
2018-02-27T20:05:07.357Z,53.80
2018-02-27T20:07:40.706Z,52.90
2018-02-27T20:10:25.756Z,52.80
2018-02-27T20:12:54.798Z,52.80
2018-02-27T20:15:27.121Z,52.90
2018-02-27T20:18:09.116Z,53.20
2018-02-27T20:20:38.100Z,53.40
2018-02-27T20:23:14.017Z,53.30
2018-02-27T20:25:42.992Z,53.20
2018-02-27T20:28:17.132Z,53.30
2018-02-27T20:30:45.614Z,53.00
2018-02-27T20:33:14.656Z,53.50
2018-02-27T20:35:46.354Z,52.00
2018-02-27T20:38:15.109Z,52.90
2018-02-27T20:40:43.767Z,52.50
2018-02-27T20:43:12.730Z,52.60
2018-02-27T20:45:42.261Z,56.00
2018-02-27T20:48:16.941Z,56.00
2018-02-27T20:50:50.656Z,57.30
2018-02-27T20:53:22.500Z,58.90
2018-02-27T20:55:51.191Z,58.90
2018-02-27T20:58:24.796Z,60.10
2018-02-27T21:00:55.557Z,58.80
2018-02-27T21:03:24.627Z,58.40
2018-02-27T21:05:53.584Z,57.10
2018-02-27T21:08:22.385Z,56.60
2018-02-27T21:10:52.840Z,56.60
2018-02-27T21:15:55.880Z,55.70
2018-02-27T21:18:25.357Z,56.60
2018-02-27T21:20:55.547Z,57.40
2018-02-27T21:23:27.707Z,55.90
2018-02-27T21:26:00.071Z,56.40
2018-02-27T21:28:32.595Z,54.80
2018-02-27T21:36:10.093Z,54.30
2018-02-27T21:51:24.606Z,55.60
2018-02-27T21:53:53.378Z,55.60
2018-02-27T21:56:22.370Z,55.70
2018-02-27T21:58:51.351Z,56.60
2018-02-27T22:01:22.359Z,56.50
2018-02-27T22:03:51.354Z,56.40
2018-02-27T22:14:02.280Z,55.50
2018-02-27T22:19:06.871Z,55.90
2018-02-27T22:24:09.921Z,55.70
2018-02-27T22:49:43.315Z,55.30
2018-02-27T22:54:45.504Z,56.40
2018-02-27T23:02:25.910Z,56.80
2018-02-27T23:07:29.963Z,56.40
2018-02-27T23:12:35.562Z,55.10
2018-02-27T23:30:42.890Z,53.90
2018-02-27T23:33:27.536Z,53.70
2018-02-27T23:46:08.160Z,53.40
